Time;durP1;ratioP1;P1;durP2;ratioP2;P2;SDS_P1;SDS_P2;PMS_P1;PMS_P2;Temp;Humidity;BMP_temperature;BMP_pressure;BME280_temperature;BME280_humidity;BME280_pressure;Samples;Min_cycle;Max_cycle;Signal;HPM_P1;HPM_P2
2021/05/04 00:00:55;;;;;;;4.28;3.58;;;;;;;14.39;58.64;100763.25;5045811;28;20120;-72
2021/05/04 00:03:21;;;;;;;10.68;4.40;;;;;;;14.42;58.02;100758.66;5040495;28;20128;-69
2021/05/04 00:05:48;;;;;;;7.90;3.92;;;;;;;14.33;58.85;100755.75;5042202;28;20500;-72
2021/05/04 00:08:14;;;;;;;12.75;3.55;;;;;;;14.47;57.91;100753.19;5045257;28;20611;-72
2021/05/04 00:10:41;;;;;;;6.32;3.28;;;;;;;14.36;57.69;100751.16;5040666;28;20083;-72
2021/05/04 00:13:07;;;;;;;6.93;3.25;;;;;;;14.48;56.92;100746.16;5041559;28;20120;-71
2021/05/04 00:15:34;;;;;;;4.30;2.72;;;;;;;14.44;57.16;100744.63;5041741;28;20069;-72
2021/05/04 00:18:00;;;;;;;4.47;3.30;;;;;;;14.43;57.20;100741.13;5045824;28;20124;-72
2021/05/04 00:20:27;;;;;;;3.78;2.47;;;;;;;14.44;55.79;100740.22;5045010;28;20542;-71
2021/05/04 00:22:53;;;;;;;7.18;3.65;;;;;;;14.31;57.41;100737.44;5039353;28;20061;-72
2021/05/04 00:25:20;;;;;;;6.70;2.97;;;;;;;14.30;57.56;100742.78;5041672;28;20068;-70
2021/05/04 00:27:46;;;;;;;5.20;2.72;;;;;;;14.25;56.59;100731.72;5040757;28;20106;-72
2021/05/04 00:30:13;;;;;;;4.50;2.42;;;;;;;14.19;56.63;100737.31;5037891;28;20071;-72
2021/05/04 00:32:39;;;;;;;3.20;2.22;;;;;;;14.25;56.61;100729.94;5042826;28;20051;-70
2021/05/04 00:35:06;;;;;;;3.15;2.35;;;;;;;14.08;57.64;100730.06;5041410;28;20499;-72
2021/05/04 00:37:33;;;;;;;3.65;2.90;;;;;;;14.12;58.46;100721.94;5043134;28;20044;-72
2021/05/04 00:39:59;;;;;;;4.72;2.60;;;;;;;14.08;58.59;100719.59;5040416;28;20108;-72
2021/05/04 00:42:25;;;;;;;3.42;3.15;;;;;;;14.10;58.04;100712.47;5038467;28;20045;-72
2021/05/04 00:44:52;;;;;;;5.97;3.33;;;;;;;13.95;59.29;100708.94;5041370;28;20120;-72
2021/05/04 00:47:19;;;;;;;5.13;3.13;;;;;;;13.84;59.71;100712.16;5042031;28;20041;-72
2021/05/04 00:49:46;;;;;;;6.68;2.95;;;;;;;13.91;59.93;100709.22;5046982;28;20044;-71
2021/05/04 00:52:13;;;;;;;3.25;2.83;;;;;;;13.86;60.22;100701.59;5045634;28;20486;-71
2021/05/04 00:54:40;;;;;;;4.72;3.35;;;;;;;13.90;59.95;100700.47;5046001;28;20068;-72
2021/05/04 00:57:08;;;;;;;5.85;3.88;;;;;;;13.82;60.21;100692.22;5043605;28;20049;-72
2021/05/04 00:59:36;;;;;;;4.45;3.80;;;;;;;13.88;59.88;100695.34;5042457;28;20033;-72
2021/05/04 01:02:03;;;;;;;3.30;3.00;;;;;;;13.87;59.70;100692.81;5040802;28;20458;-72
2021/05/04 01:04:31;;;;;;;3.42;2.50;;;;;;;13.77;60.38;100692.47;5029006;28;20045;-72
2021/05/04 01:07:00;;;;;;;3.78;3.30;;;;;;;13.90;59.69;100692.63;5040728;28;20061;-72
2021/05/04 01:09:26;;;;;;;9.13;3.80;;;;;;;13.80;59.84;100700.19;5044797;28;20036;-72
2021/05/04 01:11:53;;;;;;;4.07;3.45;;;;;;;13.98;59.07;100694.81;5041197;28;20053;-71
2021/05/04 01:14:20;;;;;;;6.10;3.38;;;;;;;13.73;60.27;100690.09;5048369;28;20037;-72
2021/05/04 01:16:49;;;;;;;7.47;3.67;;;;;;;13.65;59.96;100694.94;5041924;28;20141;-72
2021/05/04 01:19:17;;;;;;;5.25;3.28;;;;;;;13.66;60.44;100694.00;5043418;28;20045;-72
2021/05/04 01:21:44;;;;;;;9.57;3.50;;;;;;;13.60;60.48;100685.56;5046312;28;21139;-72
2021/05/04 01:24:11;;;;;;;6.63;4.03;;;;;;;13.55;60.39;100681.50;5043706;28;20128;-72
2021/05/04 01:26:48;;;;;;;8.73;3.92;;;;;;;13.55;60.73;100682.34;5048119;28;20052;-72
2021/05/04 01:29:15;;;;;;;5.13;2.97;;;;;;;13.52;60.72;100687.75;5038475;28;20045;-71
2021/05/04 01:31:42;;;;;;;7.10;3.40;;;;;;;13.49;61.00;100685.31;5042469;28;20124;-72
2021/05/04 01:34:11;;;;;;;6.20;3.40;;;;;;;13.52;60.45;100677.28;5043006;28;20075;-72
2021/05/04 01:36:38;;;;;;;3.20;2.90;;;;;;;13.44;60.82;100666.38;5041723;28;20656;-72
2021/05/04 01:39:09;;;;;;;5.50;3.40;;;;;;;13.36;60.99;100658.09;5043199;28;20045;-72
2021/05/04 01:41:36;;;;;;;3.40;2.83;;;;;;;13.38;60.89;100666.72;5046476;28;20045;-72
2021/05/04 01:44:05;;;;;;;6.72;3.20;;;;;;;13.45;60.26;100664.63;5045109;28;20041;-72
2021/05/04 01:46:32;;;;;;;3.95;3.17;;;;;;;13.41;59.61;100656.06;5044216;28;20041;-72
2021/05/04 01:49:07;;;;;;;5.20;3.78;;;;;;;13.42;59.20;100649.91;5043738;28;20395;-72
2021/05/04 01:51:37;;;;;;;4.90;2.83;;;;;;;13.35;58.50;100645.94;5044375;28;20045;-72
2021/05/04 01:54:04;;;;;;;5.60;2.35;;;;;;;13.67;56.99;100640.69;5044388;28;20088;-72
2021/05/04 01:56:30;;;;;;;2.70;2.20;;;;;;;13.61;56.94;100641.88;5044822;28;20073;-72
2021/05/04 01:59:01;;;;;;;2.92;2.00;;;;;;;13.53;56.55;100634.47;5040713;28;20499;-72
2021/05/04 02:01:28;;;;;;;2.97;2.38;;;;;;;13.56;56.36;100636.88;5041612;28;20037;-72
2021/05/04 02:03:54;;;;;;;2.20;2.00;;;;;;;13.48;56.62;100633.88;5043008;28;20049;-71
2021/05/04 02:06:20;;;;;;;4.80;2.42;;;;;;;13.52;56.52;100632.75;5042045;28;20052;-72
2021/05/04 02:08:47;;;;;;;11.77;2.85;;;;;;;13.57;56.26;100630.72;5041386;28;20381;-72
2021/05/04 02:11:14;;;;;;;5.30;2.97;;;;;;;13.31;56.83;100633.94;5042387;28;20490;-72
2021/05/04 02:13:41;;;;;;;2.53;2.10;;;;;;;13.45;56.85;100631.41;5043489;28;20484;-72
2021/05/04 02:16:07;;;;;;;2.58;2.10;;;;;;;13.55;56.48;100632.59;5044954;28;20073;-72
2021/05/04 02:18:33;;;;;;;3.95;2.60;;;;;;;13.35;57.32;100633.69;5041941;28;20049;-69
2021/05/04 02:21:00;;;;;;;5.13;2.10;;;;;;;13.20;57.69;100628.41;5050621;28;20037;-71
2021/05/04 02:23:26;;;;;;;8.93;2.90;;;;;;;13.14;58.15;100626.13;5051943;28;20075;-71
2021/05/04 02:25:53;;;;;;;4.70;2.30;;;;;;;13.27;57.41;100628.06;5050561;28;20244;-69
2021/05/04 02:28:19;;;;;;;3.42;2.35;;;;;;;13.26;57.44;100625.50;5033930;28;20526;-71
2021/05/04 02:30:46;;;;;;;3.10;2.13;;;;;;;13.30;57.05;100622.63;5051787;28;20098;-72
2021/05/04 02:33:12;;;;;;;3.20;2.03;;;;;;;13.22;57.47;100616.97;5052799;28;20057;-71
2021/05/04 02:35:38;;;;;;;7.60;2.10;;;;;;;13.32;56.90;100614.72;5034824;28;20064;-72
2021/05/04 02:38:05;;;;;;;2.67;2.17;;;;;;;13.20;56.53;100625.81;5051078;28;20129;-70
2021/05/04 02:40:31;;;;;;;7.25;2.70;;;;;;;13.03;57.55;100619.72;5033760;28;20037;-71
2021/05/04 02:42:57;;;;;;;3.97;2.22;;;;;;;13.06;58.23;100619.56;5051866;28;20095;-72
2021/05/04 02:45:24;;;;;;;3.80;2.50;;;;;;;13.11;57.13;100619.31;5053168;28;20091;-70
2021/05/04 02:47:50;;;;;;;5.15;2.08;;;;;;;13.13;56.91;100627.91;5052628;28;20053;-72
2021/05/04 02:50:17;;;;;;;3.42;2.00;;;;;;;13.20;56.71;100631.88;5049386;28;20041;-70
2021/05/04 02:52:43;;;;;;;3.90;2.50;;;;;;;12.70;58.87;100632.00;5049847;28;20495;-69
2021/05/04 02:55:10;;;;;;;5.88;2.83;;;;;;;12.97;58.17;100619.22;5051096;28;20090;-70
2021/05/04 02:57:36;;;;;;;2.83;2.33;;;;;;;12.84;58.40;100624.28;5049402;28;20068;-71
2021/05/04 03:00:04;;;;;;;4.85;2.63;;;;;;;12.77;58.98;100621.09;5049886;28;20041;-71
2021/05/04 03:02:31;;;;;;;4.03;3.22;;;;;;;12.58;59.98;100616.03;5050740;28;20039;-69
2021/05/04 03:04:57;;;;;;;2.65;2.10;;;;;;;12.46;60.20;100624.47;5046207;28;20041;-70
2021/05/04 03:07:24;;;;;;;4.20;2.90;;;;;;;12.51;59.90;100622.47;5052121;28;20098;-71
2021/05/04 03:09:51;;;;;;;3.00;2.67;;;;;;;12.64;58.93;100621.84;5034923;28;20132;-73
2021/05/04 03:12:17;;;;;;;2.70;2.50;;;;;;;12.64;58.40;100622.69;5047383;28;20071;-72
2021/05/04 03:14:44;;;;;;;5.53;3.30;;;;;;;12.51;59.33;100622.47;5043855;28;20447;-72
2021/05/04 03:17:10;;;;;;;4.82;3.10;;;;;;;12.16;61.25;100626.06;5049174;28;20083;-72
2021/05/04 03:19:38;;;;;;;5.22;3.25;;;;;;;12.28;60.60;100617.59;5046420;28;20049;-73
2021/05/04 03:22:04;;;;;;;5.40;3.22;;;;;;;11.96;61.51;100620.06;5032777;28;20087;-73
2021/05/04 03:24:31;;;;;;;5.10;3.15;;;;;;;11.97;61.68;100613.91;5049845;28;20064;-73
2021/05/04 03:26:57;;;;;;;7.13;3.20;;;;;;;11.98;61.65;100610.38;5051746;28;20068;-72
2021/05/04 03:29:24;;;;;;;5.18;3.17;;;;;;;12.01;61.80;100612.84;5052474;28;20120;-73
2021/05/04 03:31:51;;;;;;;8.38;3.75;;;;;;;12.10;61.53;100608.09;5050920;28;20084;-73
2021/05/04 03:34:18;;;;;;;5.82;3.42;;;;;;;12.08;60.97;100618.59;5050649;28;21008;-73
2021/05/04 03:36:44;;;;;;;4.53;4.07;;;;;;;12.10;61.94;100623.78;5052655;28;20094;-73
2021/05/04 03:39:11;;;;;;;6.70;3.65;;;;;;;12.01;62.18;100622.44;5052584;28;20114;-73
2021/05/04 03:41:37;;;;;;;6.25;3.92;;;;;;;12.12;61.46;100619.31;5054495;28;20045;-73
2021/05/04 03:44:04;;;;;;;3.97;3.58;;;;;;;12.18;61.06;100624.22;5053776;28;20124;-73
2021/05/04 03:46:31;;;;;;;7.18;4.30;;;;;;;12.15;60.66;100625.22;5052999;28;20045;-73
2021/05/04 03:48:57;;;;;;;5.30;4.05;;;;;;;12.25;60.53;100636.03;5058429;28;20111;-73
2021/05/04 03:51:24;;;;;;;8.02;4.35;;;;;;;12.14;61.00;100633.13;5058721;28;20091;-72
2021/05/04 03:53:50;;;;;;;7.90;3.92;;;;;;;12.02;61.51;100634.59;5061746;28;20037;-73
2021/05/04 03:56:17;;;;;;;5.72;4.57;;;;;;;12.03;61.41;100636.28;5057548;28;20133;-72
2021/05/04 03:58:43;;;;;;;6.10;4.07;;;;;;;12.02;61.07;100635.44;5058348;28;20045;-73
2021/05/04 04:01:10;;;;;;;7.80;4.35;;;;;;;11.96;61.13;100635.75;5056438;28;20127;-74
2021/05/04 04:03:36;;;;;;;5.35;3.90;;;;;;;12.02;61.51;100629.34;5054323;28;20045;-71
2021/05/04 04:06:03;;;;;;;8.48;5.07;;;;;;;12.09;61.42;100629.88;5053438;28;20045;-73
2021/05/04 04:08:30;;;;;;;5.40;3.80;;;;;;;12.04;61.94;100631.00;5053052;28;20442;-74
2021/05/04 04:10:56;;;;;;;6.00;4.38;;;;;;;12.01;61.31;100625.91;5052225;28;20061;-74
2021/05/04 04:13:23;;;;;;;4.90;3.70;;;;;;;12.02;61.66;100622.38;5057087;28;20507;-74
2021/05/04 04:15:49;;;;;;;6.50;4.53;;;;;;;12.12;61.70;100619.31;5043926;28;20113;-73
2021/05/04 04:18:16;;;;;;;6.57;3.63;;;;;;;12.02;61.43;100614.53;5025054;28;20060;-72
2021/05/04 04:20:42;;;;;;;5.30;3.85;;;;;;;12.07;61.95;100617.75;5041520;28;20124;-72
2021/05/04 04:23:08;;;;;;;6.30;4.03;;;;;;;12.14;61.62;100607.84;5047071;28;20036;-71
2021/05/04 04:25:35;;;;;;;10.35;4.30;;;;;;;12.03;61.91;100602.31;5042546;28;20084;-72
2021/05/04 04:28:01;;;;;;;10.55;5.22;;;;;;;12.07;61.89;100609.06;5044381;28;20037;-74
2021/05/04 04:30:28;;;;;;;4.65;4.25;;;;;;;12.12;61.94;100609.69;5045074;28;20432;-71
2021/05/04 04:32:54;;;;;;;5.53;4.85;;;;;;;12.07;62.61;100609.06;5042701;28;20095;-72
2021/05/04 04:35:21;;;;;;;6.07;4.88;;;;;;;12.14;62.44;100609.59;5042527;28;20139;-71
2021/05/04 04:37:47;;;;;;;6.03;4.57;;;;;;;12.29;61.77;100603.59;5043876;28;20051;-73
2021/05/04 04:40:14;;;;;;;7.93;4.97;;;;;;;12.24;61.80;100600.38;5045320;28;20956;-73
2021/05/04 04:42:40;;;;;;;7.35;4.43;;;;;;;12.38;61.73;100597.91;5043873;28;20065;-73
2021/05/04 04:45:07;;;;;;;8.38;4.65;;;;;;;12.45;61.57;100595.81;5049606;28;20052;-74
2021/05/04 04:47:39;;;;;;;7.65;4.28;;;;;;;12.60;61.32;100595.00;5054053;28;20041;-73
2021/05/04 04:50:06;;;;;;;6.93;4.60;;;;;;;12.48;61.01;100606.97;5055099;28;20044;-73
2021/05/04 04:52:33;;;;;;;5.78;4.03;;;;;;;12.69;61.20;100605.00;5055193;28;20082;-73
2021/05/04 04:54:59;;;;;;;6.65;5.28;;;;;;;12.71;60.91;100603.13;5055400;28;20492;-74
2021/05/04 04:57:25;;;;;;;9.25;5.20;;;;;;;12.64;60.67;100611.41;5055040;28;20446;-74
2021/05/04 04:59:52;;;;;;;11.32;4.45;;;;;;;12.42;59.82;100604.66;5054788;28;20041;-74
2021/05/04 05:02:18;;;;;;;7.53;4.70;;;;;;;12.36;60.13;100606.72;5056699;28;20442;-74
2021/05/04 05:04:48;;;;;;;8.57;5.03;;;;;;;13.17;58.79;100615.50;5056822;28;20041;-73
2021/05/04 05:07:15;;;;;;;9.02;5.28;;;;;;;13.54;57.32;100623.03;5053226;28;20067;-74
2021/05/04 05:09:43;;;;;;;8.15;5.00;;;;;;;13.28;58.41;100623.66;5055108;28;20033;-75
2021/05/04 05:12:09;;;;;;;6.10;4.93;;;;;;;13.61;57.06;100620.91;5045062;28;20068;-70
2021/05/04 05:14:38;;;;;;;7.38;4.88;;;;;;;13.88;56.09;100623.72;5029948;28;20072;-74
2021/05/04 05:17:05;;;;;;;9.48;6.07;;;;;;;14.07;55.50;100629.63;5047754;28;20045;-75
2021/05/04 05:19:32;;;;;;;7.60;6.43;;;;;;;14.51;54.79;100635.81;5058291;28;20129;-71
2021/05/04 05:22:01;;;;;;;10.10;8.13;;;;;;;14.98;53.54;100635.53;5058456;28;20107;-71
2021/05/04 05:24:28;;;;;;;15.07;9.07;;;;;;;15.33;53.12;100638.56;5058069;28;20106;-72
2021/05/04 05:26:54;;;;;;;22.85;11.07;;;;;;;15.73;51.54;100641.28;5057364;28;20557;-72
2021/05/04 05:29:20;;;;;;;30.65;15.48;;;;;;;15.90;51.46;100637.56;5059498;28;20043;-70
2021/05/04 05:31:47;;;;;;;20.10;13.27;;;;;;;16.20;50.27;100646.03;5055201;28;20120;-74
2021/05/04 05:34:14;;;;;;;28.30;15.95;;;;;;;16.40;49.46;100631.53;5054534;28;20048;-77
2021/05/04 05:36:41;;;;;;;22.90;14.02;;;;;;;16.57;49.17;100637.44;5053473;28;20044;-76
2021/05/04 05:39:07;;;;;;;20.98;14.55;;;;;;;16.63;48.35;100637.84;5048096;28;20069;-77
2021/05/04 05:41:34;;;;;;;24.55;15.70;;;;;;;16.77;47.91;100645.66;5049594;28;20045;-75
2021/05/04 05:44:00;;;;;;;21.90;12.80;;;;;;;17.05;46.57;100649.00;5056576;28;20064;-76
2021/05/04 05:46:30;;;;;;;20.10;12.35;;;;;;;15.94;49.77;100653.03;5054223;28;20083;-72
2021/05/04 05:48:57;;;;;;;15.13;11.95;;;;;;;16.06;50.09;100651.38;5053939;28;20037;-76
2021/05/04 05:51:25;;;;;;;19.50;12.85;;;;;;;15.98;49.94;100643.16;5046033;28;20034;-75
2021/05/04 05:53:52;;;;;;;22.95;15.18;;;;;;;15.56;52.19;100642.34;5049868;28;20143;-72
2021/05/04 05:56:19;;;;;;;25.55;18.75;;;;;;;16.13;51.74;100636.03;5053497;28;20515;-78
2021/05/04 05:58:46;;;;;;;22.88;16.95;;;;;;;16.32;50.20;100638.28;5052908;28;20140;-77
2021/05/04 06:01:13;;;;;;;17.83;12.98;;;;;;;16.24;51.10;100647.53;5033571;28;20045;-78
2021/05/04 06:03:39;;;;;;;16.52;13.52;;;;;;;16.87;49.79;100637.97;5049301;28;20041;-79
2021/05/04 06:06:05;;;;;;;14.63;11.40;;;;;;;16.46;49.81;100632.91;5051701;28;20525;-79
2021/05/04 06:08:32;;;;;;;10.88;9.73;;;;;;;16.94;49.18;100638.41;5052518;28;20044;-79
2021/05/04 06:10:58;;;;;;;15.52;9.65;;;;;;;17.75;47.52;100643.97;5053482;28;20120;-79
2021/05/04 06:13:25;;;;;;;11.27;7.72;;;;;;;18.27;46.49;100644.50;5053492;28;20124;-79
2021/05/04 06:15:51;;;;;;;14.55;8.93;;;;;;;18.35;43.95;100633.34;5053629;28;20458;-78
2021/05/04 06:18:17;;;;;;;10.48;6.10;;;;;;;18.27;43.17;100624.22;5047709;28;20095;-79
2021/05/04 06:20:44;;;;;;;17.33;9.93;;;;;;;18.52;44.75;100630.25;5040460;28;20849;-78
2021/05/04 06:23:10;;;;;;;10.02;8.00;;;;;;;18.82;43.70;100638.47;5042190;28;20140;-78
2021/05/04 06:25:37;;;;;;;10.60;7.53;;;;;;;19.91;42.79;100639.47;5039365;28;20065;-78
2021/05/04 06:28:09;;;;;;;9.90;8.35;;;;;;;19.53;43.12;100635.50;5038695;28;20057;-79
2021/05/04 06:30:37;;;;;;;10.13;8.50;;;;;;;20.32;41.64;100636.00;5038450;28;20114;-79
2021/05/04 06:33:09;;;;;;;10.77;7.82;;;;;;;19.54;42.27;100635.34;5040652;28;20090;-79
2021/05/04 06:35:38;;;;;;;22.75;10.05;;;;;;;20.65;40.58;100627.84;5041218;28;20053;-79
2021/05/04 06:38:05;;;;;;;15.88;7.10;;;;;;;21.46;39.35;100635.81;5041295;28;20136;-79
2021/05/04 06:40:32;;;;;;;11.73;8.57;;;;;;;21.93;38.01;100626.19;5041335;28;20041;-79
2021/05/04 06:43:01;;;;;;;12.07;9.38;;;;;;;21.33;38.97;100625.47;5040230;28;20036;-79
2021/05/04 06:45:29;;;;;;;9.02;8.13;;;;;;;21.61;39.03;100618.53;5040282;28;20048;-79
2021/05/04 06:47:55;;;;;;;10.15;6.80;;;;;;;22.36;36.35;100614.28;5047817;28;20572;-79
2021/05/04 06:50:22;;;;;;;10.70;5.65;;;;;;;23.27;35.50;100615.31;5051569;28;20032;-78
2021/05/04 06:52:48;;;;;;;8.27;5.72;;;;;;;23.43;33.75;100624.44;5052411;28;20499;-78
2021/05/04 06:55:15;;;;;;;11.43;5.20;;;;;;;23.84;32.84;100625.72;5052834;28;20064;-78
2021/05/04 06:57:41;;;;;;;11.73;5.38;;;;;;;23.52;34.42;100623.56;5053076;28;20079;-78
2021/05/04 07:00:09;;;;;;;8.63;6.07;;;;;;;24.16;32.74;100616.31;5052788;28;20041;-78
2021/05/04 07:02:36;;;;;;;8.48;6.38;;;;;;;24.66;31.92;100621.84;5052456;28;20124;-78
2021/05/04 07:05:04;;;;;;;8.25;5.13;;;;;;;24.79;31.79;100608.88;5052404;28;20056;-78
2021/05/04 07:07:31;;;;;;;8.18;5.68;;;;;;;24.58;31.98;100605.78;5053109;28;20033;-78
2021/05/04 07:09:58;;;;;;;12.35;5.78;;;;;;;24.63;31.73;100599.97;5052221;28;20049;-78
2021/05/04 07:12:25;;;;;;;13.45;6.07;;;;;;;23.40;33.60;100598.16;5052915;28;20436;-75
2021/05/04 07:14:51;;;;;;;8.93;5.40;;;;;;;24.56;31.95;100597.97;5052734;28;20041;-78
2021/05/04 07:17:17;;;;;;;8.82;5.43;;;;;;;25.45;30.97;100614.44;5052623;28;20135;-78
2021/05/04 07:19:45;;;;;;;6.90;4.55;;;;;;;25.25;30.35;100604.09;5052368;28;20044;-78
2021/05/04 07:22:12;;;;;;;8.80;3.75;;;;;;;24.88;30.92;100599.09;5052238;28;20071;-77
2021/05/04 07:24:38;;;;;;;12.90;4.45;;;;;;;25.31;29.95;100598.09;5052349;28;20037;-74
2021/05/04 07:27:08;;;;;;;9.35;3.97;;;;;;;26.13;29.30;100596.31;5034792;28;20103;-75
2021/05/04 07:29:36;;;;;;;16.83;4.60;;;;;;;25.31;30.41;100598.09;5052702;28;20076;-75
2021/05/04 07:32:04;;;;;;;7.93;4.45;;;;;;;25.24;30.51;100591.72;5051074;28;20049;-78
2021/05/04 07:34:30;;;;;;;9.75;8.73;;;;;;;26.45;28.94;100581.25;5044770;28;20033;-78
2021/05/04 07:36:57;;;;;;;10.52;9.43;;;;;;;26.89;28.21;100586.09;5038877;28;20044;-78
2021/05/04 07:39:24;;;;;;;6.45;4.40;;;;;;;26.86;28.36;100576.59;5021675;28;20166;-78
2021/05/04 07:41:50;;;;;;;6.40;3.38;;;;;;;26.85;28.31;100582.94;5038753;28;20083;-78
2021/05/04 07:44:16;;;;;;;5.93;3.38;;;;;;;25.33;30.04;100579.25;5040980;28;20124;-78
2021/05/04 07:46:43;;;;;;;4.82;3.67;;;;;;;26.81;28.45;100578.94;5039218;28;20378;-78
2021/05/04 07:49:17;;;;;;;5.65;3.20;;;;;;;25.77;29.78;100586.97;5041253;28;20033;-77
2021/05/04 07:51:43;;;;;;;4.93;3.67;;;;;;;25.88;29.88;100577.81;5025797;28;20037;-75
2021/05/04 07:54:10;;;;;;;7.65;3.72;;;;;;;25.46;30.42;100574.28;5041079;28;20034;-74
2021/05/04 07:56:36;;;;;;;8.57;4.55;;;;;;;25.38;29.98;100586.75;5046067;28;20080;-74
2021/05/04 07:59:03;;;;;;;4.70;4.13;;;;;;;25.97;28.80;100576.81;5046076;28;20042;-74
2021/05/04 08:01:29;;;;;;;6.95;3.80;;;;;;;26.09;28.64;100568.25;5050422;28;20036;-74
2021/05/04 08:03:56;;;;;;;6.43;4.80;;;;;;;26.33;29.39;100558.53;5049895;28;20041;-77
2021/05/04 08:06:22;;;;;;;12.85;4.95;;;;;;;27.17;28.13;100557.06;5045666;28;20120;-77
2021/05/04 08:08:49;;;;;;;6.28;5.03;;;;;;;27.11;27.90;100563.09;5028092;28;20076;-77
2021/05/04 08:11:15;;;;;;;11.65;5.15;;;;;;;27.43;27.86;100562.03;5048528;28;20083;-77
2021/05/04 08:13:41;;;;;;;6.22;5.63;;;;;;;28.10;26.25;100562.16;5049399;28;20063;-77
2021/05/04 08:16:10;;;;;;;7.53;4.95;;;;;;;28.55;25.84;100563.06;5047268;28;20395;-76
2021/05/04 08:18:37;;;;;;;8.43;4.75;;;;;;;29.08;26.06;100569.06;5025957;28;20103;-76
2021/05/04 08:21:04;;;;;;;8.20;5.40;;;;;;;27.73;26.79;100554.16;5045666;28;20045;-76
2021/05/04 08:23:31;;;;;;;6.38;5.25;;;;;;;27.95;27.46;100555.94;5042597;28;20133;-76
2021/05/04 08:25:57;;;;;;;9.02;6.05;;;;;;;27.69;27.50;100562.50;5043261;28;20044;-76
2021/05/04 08:28:23;;;;;;;25.52;6.65;;;;;;;27.35;27.42;100556.75;5047832;28;20037;-77
2021/05/04 08:30:51;;;;;;;7.47;4.57;;;;;;;28.02;27.65;100564.94;5041605;28;20128;-77
2021/05/04 08:33:18;;;;;;;6.70;5.95;;;;;;;28.03;26.52;100563.09;5020689;28;20044;-76
2021/05/04 08:35:45;;;;;;;6.55;4.60;;;;;;;27.40;27.90;100555.22;5044294;28;20041;-77
2021/05/04 08:38:12;;;;;;;8.40;5.95;;;;;;;27.15;27.82;100549.19;5043533;28;20055;-77
2021/05/04 08:40:38;;;;;;;11.07;5.15;;;;;;;26.82;28.39;100561.06;5048844;28;20043;-76
2021/05/04 08:43:05;;;;;;;9.68;4.63;;;;;;;26.13;28.99;100560.75;5041436;28;20123;-76
2021/05/04 08:45:33;;;;;;;10.57;4.82;;;;;;;27.21;27.58;100563.69;5045796;28;20045;-76
2021/05/04 08:48:01;;;;;;;7.75;3.65;;;;;;;26.26;28.14;100550.38;5044997;28;20507;-76
2021/05/04 08:50:30;;;;;;;10.45;4.60;;;;;;;26.10;28.77;100555.75;5046263;28;20080;-76
2021/05/04 08:52:56;;;;;;;12.85;4.53;;;;;;;26.66;28.19;100553.09;5040861;28;20124;-76
2021/05/04 08:55:24;;;;;;;25.88;5.75;;;;;;;27.04;28.18;100560.25;5042856;28;20566;-76
2021/05/04 08:57:50;;;;;;;6.43;5.05;;;;;;;26.86;27.44;100551.69;5028890;28;20458;-76
2021/05/04 09:00:17;;;;;;;8.45;3.90;;;;;;;26.12;28.94;100548.41;5047044;28;20480;-75
2021/05/04 09:03:08;;;;;;;11.05;4.00;;;;;;;25.53;29.32;100553.09;5043687;28;20242;-76
2021/05/04 09:05:52;;;;;;;25.98;6.45;;;;;;;25.69;28.88;100547.75;5045679;28;20139;-76
2021/05/04 09:11:40;;;;;;;10.05;4.10;;;;;;;25.16;29.59;100545.53;5046991;28;20041;-75
2021/05/04 09:17:25;;;;;;;12.32;3.70;;;;;;;24.99;30.68;100545.47;5043293;28;20037;-75
2021/05/04 09:20:33;;;;;;;10.00;4.00;;;;;;;25.08;29.41;100547.16;5043461;28;20085;-76
2021/05/04 09:23:08;;;;;;;6.47;4.05;;;;;;;23.93;32.42;100539.59;5045650;28;20047;-75
2021/05/04 09:25:39;;;;;;;11.38;4.30;;;;;;;24.28;31.66;100527.97;5046949;28;20526;-75
2021/05/04 09:28:07;;;;;;;42.30;9.10;;;;;;;24.18;31.95;100519.28;5047172;28;20123;-75
2021/05/04 09:30:34;;;;;;;8.95;3.88;;;;;;;24.40;31.86;100528.59;5049639;28;20160;-76
2021/05/04 09:33:09;;;;;;;5.47;3.35;;;;;;;23.15;32.62;100527.94;5046842;28;20051;-75
2021/05/04 09:35:37;;;;;;;15.70;4.32;;;;;;;23.62;31.44;100530.34;5046240;28;20068;-75
2021/05/04 09:38:03;;;;;;;4.68;2.78;;;;;;;23.37;30.65;100523.97;5043823;28;20041;-75
2021/05/04 09:40:32;;;;;;;8.07;3.70;;;;;;;22.73;31.38;100525.78;5046525;28;20438;-75
2021/05/04 09:43:27;;;;;;;13.68;4.97;;;;;;;23.16;31.25;100521.63;5029254;28;20045;-74
2021/05/04 09:46:01;;;;;;;7.47;3.63;;;;;;;22.92;31.15;100517.72;5038272;28;20048;-74
2021/05/04 09:48:34;;;;;;;10.27;3.55;;;;;;;22.81;30.98;100520.56;5043707;28;20099;-73
2021/05/04 09:51:08;;;;;;;7.38;2.63;;;;;;;23.18;31.40;100523.16;5046146;28;20048;-74
2021/05/04 09:53:39;;;;;;;;;;;;;;;22.63;30.96;100523.16;5046158;28;20037;-75
2021/05/04 09:56:07;;;;;;;6.78;3.47;;;;;;;22.49;32.47;100513.03;5044231;28;19921;-74
2021/05/04 09:58:37;;;;;;;12.88;3.58;;;;;;;22.55;32.74;100509.78;5043379;28;20042;-74
2021/05/04 10:01:15;;;;;;;14.35;3.85;;;;;;;22.76;32.51;100509.53;5041479;28;20068;-73
2021/05/04 10:03:44;;;;;;;44.67;8.18;;;;;;;22.84;31.96;100504.31;5036653;28;20487;-74
2021/05/04 10:06:12;;;;;;;11.93;3.20;;;;;;;22.87;30.99;100505.84;5042165;28;20045;-75
2021/05/04 10:08:39;;;;;;;6.93;3.28;;;;;;;22.91;31.66;100501.94;5045610;28;20040;-75
2021/05/04 10:11:19;;;;;;;5.38;3.63;;;;;;;23.02;31.47;100506.19;5044937;28;20040;-75
2021/05/04 10:13:58;;;;;;;4.43;2.47;;;;;;;23.14;30.78;100492.53;5042320;28;20491;-74
2021/05/04 10:16:27;;;;;;;10.27;3.83;;;;;;;22.41;32.13;100495.16;5048820;28;20076;-74
2021/05/04 10:19:01;;;;;;;6.13;3.60;;;;;;;22.61;32.52;100484.44;5044251;28;20037;-74
2021/05/04 10:21:29;;;;;;;29.17;6.47;;;;;;;22.48;34.41;100480.34;5045046;28;20046;-74
2021/05/04 10:23:57;;;;;;;5.43;4.47;;;;;;;22.52;34.44;100480.03;5046262;28;20041;-74
2021/05/04 10:26:29;;;;;;;10.40;5.20;;;;;;;22.72;35.18;100477.09;5040341;28;20037;-74
2021/05/04 10:28:59;;;;;;;8.52;6.15;;;;;;;22.06;36.13;100473.78;5042997;28;20075;-74
2021/05/04 10:31:47;;;;;;;10.38;7.47;;;;;;;21.93;36.38;100472.25;5024848;28;20048;-74
2021/05/04 10:34:23;;;;;;;8.52;5.90;;;;;;;22.53;36.20;100468.41;5048893;28;20558;-75
2021/05/04 10:36:57;;;;;;;8.43;5.57;;;;;;;22.66;35.42;100472.41;5045809;28;20095;-75
2021/05/04 10:39:37;;;;;;;9.63;6.15;;;;;;;22.38;35.00;100466.25;5038434;28;20049;-75
2021/05/04 10:42:05;;;;;;;6.60;5.00;;;;;;;22.40;34.76;100468.75;5045489;28;20492;-74
2021/05/04 10:44:57;;;;;;;11.63;10.23;;;;;;;22.46;34.79;100469.00;5045035;28;20044;-75
2021/05/04 10:47:39;;;;;;;12.45;7.95;;;;;;;22.11;34.87;100469.75;5041791;28;20048;-74
2021/05/04 10:50:09;;;;;;;22.30;7.30;;;;;;;22.05;35.02;100461.47;5040378;28;20123;-74
2021/05/04 10:53:03;;;;;;;35.50;8.27;;;;;;;22.45;35.29;100454.06;5043270;28;20076;-74
2021/05/04 10:55:51;;;;;;;15.48;5.95;;;;;;;22.29;35.04;100448.56;5043439;28;20040;-74
2021/05/04 10:58:19;;;;;;;12.95;5.78;;;;;;;22.63;34.31;100440.78;5045539;28;20622;-74
2021/05/04 11:01:04;;;;;;;6.85;4.95;;;;;;;22.25;34.34;100431.22;5046625;28;20123;-74
2021/05/04 11:03:34;;;;;;;29.90;6.90;;;;;;;22.38;33.69;100437.06;5042156;28;20033;-74
2021/05/04 11:06:08;;;;;;;6.95;5.07;;;;;;;22.38;33.25;100422.94;5041774;28;20119;-74
2021/05/04 11:08:43;;;;;;;8.68;4.53;;;;;;;22.62;32.14;100422.34;5043017;28;20037;-74
2021/05/04 11:11:41;;;;;;;8.32;5.07;;;;;;;22.27;33.03;100423.97;5040732;28;20057;-75
2021/05/04 11:14:16;;;;;;;9.77;5.78;;;;;;;22.29;33.67;100414.03;5040802;28;20041;-74
2021/05/04 11:16:47;;;;;;;4.82;4.43;;;;;;;22.02;32.01;100419.31;5042319;28;20060;-74
2021/05/04 11:19:29;;;;;;;15.13;4.88;;;;;;;22.23;32.13;100414.63;5044078;28;20098;-74
2021/05/04 11:21:59;;;;;;;5.35;4.45;;;;;;;22.19;33.44;100413.25;5039517;28;20034;-74
2021/05/04 11:24:29;;;;;;;9.20;5.13;;;;;;;22.34;32.91;100402.97;5041308;28;20029;-74
2021/05/04 11:27:18;;;;;;;17.35;5.63;;;;;;;22.07;33.07;100401.13;5040156;28;20488;-74
2021/05/04 11:29:47;;;;;;;7.15;4.63;;;;;;;22.04;33.62;100396.09;5045436;28;20072;-72
2021/05/04 11:32:27;;;;;;;6.55;4.57;;;;;;;22.23;32.77;100401.34;5051317;28;20076;-70
2021/05/04 11:35:00;;;;;;;4.00;3.08;;;;;;;22.32;32.76;100384.53;5061159;28;20044;-70